TimeEST,TemperatureF,Dew PointF,Humidity,Sea Level PressureIn,VisibilityMPH,Wind Direction,Wind SpeedMPH,Gust SpeedMPH,PrecipitationIn,Events,Conditions,WindDirDegrees,DateUTC
12:15 AM,19.4,17.6,93,30.09,1.8,Calm,Calm,-,N/A,Snow,Light Snow,0,2014-02-05 05:15:00
12:35 AM,19.4,17.6,93,30.06,1.5,ENE,12.7,16.1,N/A,Snow,Light Snow,60,2014-02-05 05:35:00
12:55 AM,19.4,17.6,93,30.06,1.8,ENE,6.9,16.1,N/A,Snow,Light Snow,70,2014-02-05 05:55:00
1:15 AM,19.4,17.6,93,30.01,1.5,ENE,12.7,18.4,N/A,Snow,Light Snow,60,2014-02-05 06:15:00
1:36 AM,19.4,17.6,93,30.03,1.2,NE,9.2,18.4,N/A,Snow,Light Snow,50,2014-02-05 06:36:00
1:56 AM,19.4,17.6,93,30.03,1.2,ENE,5.8,10.4,N/A,Snow,Light Snow,60,2014-02-05 06:56:00
2:16 AM,19.4,17.6,93,30.00,1.5,NE,10.4,18.4,N/A,Snow,Light Snow,50,2014-02-05 07:16:00
2:36 AM,19.4,17.6,93,30.00,2.5,NE,11.5,17.3,N/A,Snow,Light Snow,40,2014-02-05 07:36:00
2:56 AM,19.4,17.6,93,30.00,4.0,NE,6.9,-,N/A,,Overcast,40,2014-02-05 07:56:00
3:16 AM,19.4,17.6,93,29.98,5.0,NNE,9.2,19.6,N/A,,Overcast,30,2014-02-05 08:16:00
3:36 AM,21.2,17.6,86,29.96,7.0,NNE,11.5,17.3,N/A,,Overcast,30,2014-02-05 08:36:00
3:56 AM,21.2,17.6,86,29.93,7.0,NE,10.4,20.7,N/A,,Overcast,40,2014-02-05 08:56:00
4:16 AM,21.2,17.6,86,29.91,5.0,NNE,10.4,21.9,N/A,Snow,Light Snow,30,2014-02-05 09:16:00
4:36 AM,21.2,17.6,86,29.89,4.0,NE,11.5,18.4,N/A,Snow,Light Snow,40,2014-02-05 09:36:00
4:51 AM,21.2,17.6,86,29.87,2.0,NE,13.8,19.6,N/A,Snow,Light Snow,40,2014-02-05 09:51:00
5:12 AM,21.2,19.4,93,29.85,1.0,NE,11.5,24.2,N/A,Snow,Light Snow,40,2014-02-05 10:12:00
5:32 AM,21.2,19.4,93,29.83,1.0,NNE,15.0,23.0,N/A,Snow,Snow,30,2014-02-05 10:32:00
5:52 AM,21.2,19.4,93,29.83,1.2,NNE,11.5,21.9,N/A,Snow,Light Snow,30,2014-02-05 10:52:00
6:12 AM,21.2,19.4,93,29.84,1.5,NNE,10.4,18.4,N/A,Snow,Light Snow,30,2014-02-05 11:12:00
6:32 AM,21.2,19.4,93,29.81,1.0,NNE,13.8,24.2,N/A,Snow,Light Snow,20,2014-02-05 11:32:00
6:52 AM,21.2,19.4,93,29.85,1.0,North,12.7,21.9,N/A,Snow,Light Snow,10,2014-02-05 11:52:00
7:12 AM,21.2,19.4,93,29.86,1.0,North,13.8,-,N/A,Snow,Light Snow,10,2014-02-05 12:12:00
7:32 AM,21.2,19.4,93,29.84,0.5,NNE,11.5,20.7,N/A,Snow,Snow,20,2014-02-05 12:32:00
7:52 AM,21.2,19.4,93,29.84,0.5,NNE,13.8,20.7,N/A,Snow,Heavy Snow,20,2014-02-05 12:52:00
8:12 AM,21.2,19.4,93,29.85,0.2,NNE,11.5,19.6,N/A,Snow,Heavy Snow,20,2014-02-05 13:12:00
8:33 AM,21.2,19.4,93,29.83,-9999.0,NNE,12.7,18.4,N/A,,Overcast,20,2014-02-05 13:33:00
8:53 AM,21.2,19.4,93,29.84,-9999.0,NNE,10.4,19.6,N/A,,Overcast,20,2014-02-05 13:53:00
9:13 AM,21.2,19.4,93,29.85,-9999.0,North,10.4,17.3,N/A,,Overcast,10,2014-02-05 14:13:00
9:33 AM,21.2,19.4,93,29.88,-9999.0,North,13.8,-,N/A,,Overcast,360,2014-02-05 14:33:00
9:53 AM,21.2,19.4,93,29.88,-9999.0,North,15.0,-,N/A,,Overcast,360,2014-02-05 14:53:00
10:13 AM,21.2,19.4,93,29.89,-9999.0,North,17.3,-,N/A,,Overcast,360,2014-02-05 15:13:00
10:33 AM,23.0,19.4,86,29.91,-9999.0,North,13.8,-,N/A,,Overcast,360,2014-02-05 15:33:00
10:53 AM,23.0,19.4,86,29.92,-9999.0,North,16.1,-,N/A,,Overcast,360,2014-02-05 15:53:00
11:14 AM,24.8,21.2,86,29.92,2.5,North,17.3,23.0,N/A,Snow,Light Snow,360,2014-02-05 16:14:00
11:34 AM,24.8,21.2,86,29.93,1.0,North,16.1,23.0,N/A,Snow,Light Snow,360,2014-02-05 16:34:00
11:54 AM,24.8,21.2,86,29.95,1.2,North,16.1,23.0,N/A,Snow,Light Snow,350,2014-02-05 16:54:00
12:14 PM,24.8,21.2,86,29.97,2.0,North,12.7,19.6,N/A,Snow,Light Snow,360,2014-02-05 17:14:00
12:34 PM,24.8,19.4,80,29.98,3.0,North,17.3,26.5,N/A,Snow,Light Snow,10,2014-02-05 17:34:00
12:54 PM,24.8,19.4,80,29.98,2.5,North,18.4,23.0,N/A,Snow,Light Snow,360,2014-02-05 17:54:00
1:14 PM,24.8,19.4,80,29.99,2.0,North,19.6,25.3,N/A,Snow,Light Snow,10,2014-02-05 18:14:00
1:34 PM,24.8,19.4,80,30.00,3.0,North,17.3,25.3,N/A,Snow,Light Snow,10,2014-02-05 18:34:00
1:54 PM,24.8,19.4,80,30.00,2.5,North,11.5,20.7,N/A,Snow,Light Snow,360,2014-02-05 18:54:00
2:14 PM,26.6,19.4,74,30.01,7.0,North,16.1,20.7,N/A,,Overcast,10,2014-02-05 19:14:00
2:35 PM,26.6,17.6,69,30.03,10.0,North,12.7,17.3,N/A,,Overcast,350,2014-02-05 19:35:00
2:55 PM,26.6,19.4,74,30.04,5.0,NNW,15.0,24.2,N/A,,Haze,340,2014-02-05 19:55:00
3:15 PM,26.6,17.6,69,30.05,7.0,North,18.4,24.2,N/A,,Overcast,360,2014-02-05 20:15:00
3:35 PM,24.8,17.6,74,30.07,7.0,North,16.1,26.5,N/A,,Overcast,350,2014-02-05 20:35:00
3:55 PM,24.8,17.6,74,30.09,10.0,North,12.7,20.7,N/A,,Overcast,350,2014-02-05 20:55:00
4:15 PM,24.8,15.8,69,30.11,10.0,North,12.7,18.4,N/A,,Overcast,350,2014-02-05 21:15:00
4:35 PM,23.0,15.8,74,30.12,10.0,NNW,11.5,16.1,N/A,,Overcast,330,2014-02-05 21:35:00
4:55 PM,23.0,15.8,74,30.13,10.0,North,11.5,17.3,N/A,,Overcast,350,2014-02-05 21:55:00
5:15 PM,23.0,15.8,74,30.16,10.0,NNW,12.7,-,N/A,,Overcast,340,2014-02-05 22:15:00
5:35 PM,21.2,14.0,74,30.18,10.0,NNW,13.8,-,N/A,,Overcast,330,2014-02-05 22:35:00
5:56 PM,21.2,12.2,68,30.20,10.0,NW,12.7,-,N/A,Snow,Light Snow,320,2014-02-05 22:56:00
6:16 PM,19.4,10.4,68,30.22,10.0,NNW,10.4,-,N/A,,Overcast,340,2014-02-05 23:16:00
6:36 PM,19.4,8.6,63,30.23,10.0,NNW,10.4,-,N/A,,Overcast,330,2014-02-05 23:36:00
6:56 PM,19.4,8.6,63,30.25,10.0,NNW,10.4,16.1,N/A,,Overcast,340,2014-02-05 23:56:00
7:16 PM,17.6,6.8,63,30.25,10.0,NNW,9.2,-,N/A,,Overcast,340,2014-02-06 00:16:00
7:36 PM,15.8,6.8,68,30.26,10.0,NNW,8.1,-,N/A,,Mostly Cloudy,340,2014-02-06 00:36:00
7:56 PM,15.8,6.8,68,30.28,10.0,Calm,Calm,-,N/A,,Scattered Clouds,0,2014-02-06 00:56:00
8:16 PM,15.8,5.0,62,30.28,10.0,Calm,Calm,-,N/A,,Mostly Cloudy,0,2014-02-06 01:16:00
8:36 PM,12.2,6.8,79,30.29,10.0,Calm,Calm,-,N/A,,Overcast,0,2014-02-06 01:36:00
8:52 PM,12.2,6.8,79,30.29,10.0,Calm,Calm,-,N/A,,Mostly Cloudy,0,2014-02-06 01:52:00
9:12 PM,8.6,3.2,79,30.31,10.0,Calm,Calm,-,N/A,,Overcast,0,2014-02-06 02:12:00
9:32 PM,10.4,1.4,67,30.32,10.0,Calm,Calm,-,N/A,,Overcast,0,2014-02-06 02:32:00
9:52 PM,6.8,3.2,85,30.32,10.0,Calm,Calm,-,N/A,,Overcast,0,2014-02-06 02:52:00
10:12 PM,6.8,1.4,79,30.33,10.0,Calm,Calm,-,N/A,,Overcast,0,2014-02-06 03:12:00
10:32 PM,8.6,5.0,85,30.32,10.0,Calm,Calm,-,N/A,,Mostly Cloudy,0,2014-02-06 03:32:00
10:52 PM,5.0,1.4,85,30.32,10.0,Calm,Calm,-,N/A,,Scattered Clouds,0,2014-02-06 03:52:00
11:12 PM,3.2,1.4,92,30.32,10.0,Calm,Calm,-,N/A,,Scattered Clouds,0,2014-02-06 04:12:00
11:32 PM,1.4,-2.2,85,30.33,10.0,Calm,Calm,-,N/A,,Scattered Clouds,0,2014-02-06 04:32:00
11:53 PM,1.4,-0.4,92,30.34,10.0,Calm,Calm,-,N/A,,Clear,0,2014-02-06 04:53:00